Time;durP1;ratioP1;P1;durP2;ratioP2;P2;SDS_P1;SDS_P2;PMS_P1;PMS_P2;Temp;Humidity;BMP_temperature;BMP_pressure;BME280_temperature;BME280_humidity;BME280_pressure;Samples;Min_cycle;Max_cycle;Signal;HPM_P1;HPM_P2
2024/01/26 00:01:40;;;;;;;48.97;22.98;;;9.00;99.90;;;;;;5147798;24;20071;-94
2024/01/26 00:04:19;;;;;;;40.50;19.95;;;;;;;;;;4798732;29;20054;-95
2024/01/26 00:09:29;;;;;;;52.78;22.90;;;;;;;;;;4933697;24;20066;-94
2024/01/26 00:12:01;;;;;;;43.63;20.35;;;;;;;;;;4806110;24;20048;-95
2024/01/26 00:14:28;;;;;;;42.67;20.40;;;;;;;;;;4817589;24;20179;-94
2024/01/26 00:16:58;;;;;;;49.58;22.25;;;;;;;;;;4812065;24;20154;-95
2024/01/26 00:22:21;;;;;;;44.05;21.42;;;;;;;;;;4850630;24;20063;-94
2024/01/26 00:24:50;;;;;;;48.55;21.23;;;;;;;;;;4780782;24;20061;-94
2024/01/26 00:27:19;;;;;;;44.95;21.15;;;;;;;;;;4828487;24;20044;-94
2024/01/26 00:29:52;;;;;;;45.15;21.42;;;;;;;;;;4802535;24;20147;-94
2024/01/26 00:32:28;;;;;;;43.33;20.80;;;;;;;;;;4876203;24;20064;31
2024/01/26 00:34:57;;;;;;;47.67;22.05;;;;;;;;;;4893010;24;21497;-94
2024/01/26 00:39:57;;;;;;;46.40;19.65;;;;;;;;;;4816745;24;20055;-94
2024/01/26 00:42:51;;;;;;;44.15;19.08;;;9.00;99.90;;;;;;4884297;24;20540;31
2024/01/26 00:48:38;;;;;;;37.00;18.30;;;;;;;;;;4979673;24;20037;-94
2024/01/26 00:51:06;;;;;;;34.88;17.25;;;;;;;;;;4839974;24;20063;-94
2024/01/26 00:53:33;;;;;;;29.92;16.70;;;;;;;;;;4775672;29;20425;-94
2024/01/26 00:56:01;;;;;;;27.38;14.13;;;;;;;;;;4835714;24;20138;-95
2024/01/26 00:58:31;;;;;;;23.70;13.65;;;;;;;;;;4848314;24;20112;-95
2024/01/26 01:00:59;;;;;;;23.65;13.50;;;;;;;;;;4825387;24;20071;-94
2024/01/26 01:03:29;;;;;;;23.30;12.88;;;;;;;;;;5002290;23;20074;-94
2024/01/26 01:05:56;;;;;;;24.70;12.98;;;;;;;;;;4803796;24;20112;-94
2024/01/26 01:08:35;;;;;;;24.00;14.27;;;;;;;;;;4811798;24;20058;-94
2024/01/26 01:11:02;;;;;;;23.33;13.82;;;;;;;;;;4794329;24;20146;-94
2024/01/26 01:13:29;;;;;;;28.10;14.40;;;;;;;;;;4796338;24;20398;-95
2024/01/26 01:16:00;;;;;;;26.30;14.70;;;;;;;;;;4793224;29;20435;-94
2024/01/26 01:18:32;;;;;;;25.48;14.45;;;;;;;;;;4796542;29;20465;-95
2024/01/26 01:20:58;;;;;;;29.48;15.48;;;;;;;;;;4798012;24;20062;-95
2024/01/26 01:23:25;;;;;;;24.60;14.38;;;;;;;;;;4808056;24;20418;-94
2024/01/26 01:26:05;;;;;;;23.88;13.32;;;;;;;;;;4799158;24;20104;-94
2024/01/26 01:28:31;;;;;;;22.70;13.13;;;;;;;;;;4782286;24;20109;-93
2024/01/26 01:30:59;;;;;;;23.35;12.80;;;;;;;;;;4782257;24;20130;-95
2024/01/26 01:33:26;;;;;;;21.65;12.52;;;;;;;;;;4792672;24;20099;-95
2024/01/26 01:35:52;;;;;;;19.35;12.25;;;;;;;;;;4786231;24;20055;-95
2024/01/26 01:38:31;;;;;;;24.55;12.55;;;;;;;;;;4890215;24;20083;-95
2024/01/26 01:40:59;;;;;;;21.85;12.63;;;;;;;;;;4783695;24;20059;-94
2024/01/26 01:43:25;;;;;;;22.17;12.95;;;;;;;;;;4831526;24;20055;-94
2024/01/26 01:45:54;;;;;;;18.70;12.80;;;;;;;;;;4874121;24;20067;-96
2024/01/26 01:48:21;;;;;;;21.63;12.80;;;;;;;;;;4785237;24;20151;-95
2024/01/26 01:50:53;;;;;;;18.60;11.45;;;;;;;;;;4862021;24;20056;-95
2024/01/26 01:53:53;;;;;;;21.58;12.02;;;;;;;;;;4935368;24;20207;-95
2024/01/26 01:56:29;;;;;;;19.80;11.25;;;;;;;;;;4791462;24;20052;-95
2024/01/26 01:58:59;;;;;;;20.35;12.52;;;;;;;;;;4874078;24;20094;-94
2024/01/26 02:01:38;;;;;;;21.30;13.07;;;;;;;;;;4837174;24;20070;-94
2024/01/26 02:04:06;;;;;;;19.45;11.82;;;;;;;;;;4797684;24;20051;-94
2024/01/26 02:07:11;;;;;;;21.48;12.77;;;;;;;;;;4861736;24;20066;-95
2024/01/26 02:09:39;;;;;;;22.08;11.73;;;;;;;;;;4786162;24;20063;-95
2024/01/26 02:12:05;;;;;;;19.70;13.15;;;;;;;;;;4818031;24;20055;-95
2024/01/26 02:14:32;;;;;;;19.02;13.52;;;;;;;;;;4812332;24;20062;-94
2024/01/26 02:17:09;;;;;;;23.08;13.38;;;;;;;;;;4826582;24;20059;-95
2024/01/26 02:19:36;;;;;;;21.27;13.77;;;;;;;;;;4846534;24;20051;-94
2024/01/26 02:22:03;;;;;;;21.38;13.82;;;;;;;;;;4835871;24;20062;-94
2024/01/26 02:24:29;;;;;;;19.55;12.23;;;;;;;;;;4821847;24;20113;-94
2024/01/26 02:26:56;;;;;;;21.73;12.63;;;;;;;;;;4803854;24;20059;-93
2024/01/26 02:29:22;;;;;;;21.95;14.32;;;;;;;;;;4798528;24;20066;-94
2024/01/26 02:31:50;;;;;;;24.10;13.55;;;;;;;;;;4800738;24;20052;-94
2024/01/26 02:36:50;;;;;;;22.38;14.57;;;;;;;;;;4807440;29;20447;-94
2024/01/26 02:39:28;;;;;;;20.80;13.90;;;;;;;;;;4902750;24;20073;-94
2024/01/26 02:42:02;;;;;;;21.63;14.27;;;;;;;;;;4810149;24;20063;-94
2024/01/26 02:44:28;;;;;;;;;;;;;;;;;;4777876;24;20055;-94
2024/01/26 02:50:27;;;;;;;20.95;14.13;;;;;;;;;;4895006;24;20047;-95
2024/01/26 02:52:56;;;;;;;30.00;15.63;;;;;;;;;;4802888;24;20081;-94
2024/01/26 02:55:30;;;;;;;;;;;;;;;;;;4797815;24;20063;-94
2024/01/26 02:57:57;;;;;;;18.73;13.55;;;;;;;;;;4932510;24;20393;-94
2024/01/26 03:00:25;;;;;;;20.95;12.15;;;;;;;;;;4779615;30;20116;-93
2024/01/26 03:02:51;;;;;;;21.90;13.50;;;;;;;;;;4765581;30;20619;-93
2024/01/26 03:05:17;;;;;;;22.40;13.27;;;;;;;;;;4765284;30;20066;-93
2024/01/26 03:07:44;;;;;;;20.85;12.73;;;;;;;;;;4794719;24;20055;-93
2024/01/26 03:10:10;;;;;;;21.20;12.70;;;;;;;;;;4825659;24;20055;-94
2024/01/26 03:12:36;;;;;;;24.70;12.45;;;;;;;;;;4814063;24;20054;-94
2024/01/26 03:15:06;;;;;;;19.80;12.98;;;;;;;;;;4840897;24;20047;-94
2024/01/26 03:17:32;;;;;;;23.05;13.00;;;;;;;;;;4824448;24;20055;-95
2024/01/26 03:19:58;;;;;;;21.92;13.68;;;;;;;;;;4783659;30;20192;-94
2024/01/26 03:22:25;;;;;;;19.23;12.70;;;;;;;;;;4833212;24;20067;-95
2024/01/26 03:24:56;;;;;;;22.30;13.48;;;;;;;;;;4808282;24;20059;-95
2024/01/26 03:27:24;;;;;;;19.00;12.00;;;;;;;;;;4779214;24;20040;-94
2024/01/26 03:29:52;;;;;;;19.00;12.23;;;;;;;;;;4829159;24;20082;-94
2024/01/26 03:32:21;;;;;;;19.65;12.88;;;;;;;;;;4794230;24;20051;-95
2024/01/26 03:34:48;;;;;;;21.25;13.35;;;;;;;;;;4887308;24;20104;-95
2024/01/26 03:37:18;;;;;;;25.73;13.30;;;;;;;;;;4814855;29;20055;-95
2024/01/26 04:34:58;;;;;;;24.73;13.45;;;;;;;;;;4816165;24;20058;31
2024/01/26 04:37:25;;;;;;;21.85;14.75;;;;;;;;;;4801312;24;20059;-95
2024/01/26 04:39:55;;;;;;;22.60;14.00;;;;;;;;;;4777837;29;20055;-94
2024/01/26 04:42:21;;;;;;;21.77;13.45;;;;;;;;;;4786224;24;20064;-94
2024/01/26 04:44:49;;;;;;;25.67;15.82;;;;;;;;;;4802655;24;20525;-96
2024/01/26 04:47:22;;;;;;;27.80;13.10;;;;;;;;;;4878682;24;20633;-95
2024/01/26 04:50:09;;;;;;;19.88;12.93;;;;;;;;;;4797157;24;20059;-95
2024/01/26 04:52:36;;;;;;;18.40;12.98;;;;;;;;;;4819979;24;20083;-95
2024/01/26 04:55:34;;;;;;;20.55;12.55;;;;;;;;;;4844251;24;20062;31
2024/01/26 04:58:01;;;;;;;19.08;13.48;;;;;;;;;;4796271;29;20058;-95
2024/01/26 05:00:32;;;;;;;23.00;12.75;;;;;;;;;;4846788;24;20097;-94
2024/01/26 05:03:05;;;;;;;21.95;13.23;;;;;;;;;;4837408;24;20080;-95
2024/01/26 05:05:36;;;;;;;21.50;13.00;;;;;;;;;;4928996;24;20070;-94
2024/01/26 05:08:25;;;;;;;27.83;13.67;;;;;;;;;;5007961;24;20098;-95
2024/01/26 05:11:25;;;;;;;21.10;12.90;;;10.50;99.90;;;;;;4869116;24;20148;-94
2024/01/26 05:14:02;;;;;;;21.50;12.50;;;;;;;;;;4771534;24;20144;-95
2024/01/26 05:16:34;;;;;;;18.33;11.30;;;;;;;;;;4812661;24;20061;-95
2024/01/26 05:19:04;;;;;;;22.08;13.75;;;;;;;;;;4832582;29;20078;-95
2024/01/26 05:21:34;;;;;;;18.00;13.23;;;;;;;;;;4823042;24;20090;-95
2024/01/26 05:24:09;;;;;;;20.38;13.77;;;;;;;;;;4828210;24;20052;-94
2024/01/26 05:26:48;;;;;;;16.92;11.25;;;;;;;;;;4772606;24;20055;-94
2024/01/26 05:29:21;;;;;;;17.70;11.32;;;;;;;;;;4775732;24;20066;-94
2024/01/26 05:31:51;;;;;;;18.42;11.38;;;;;;;;;;4831848;24;20047;-94
2024/01/26 05:34:23;;;;;;;18.65;11.50;;;;;;;;;;4853409;24;20056;-94
2024/01/26 05:37:43;;;;;;;15.95;11.05;;;10.50;99.90;;;;;;4919604;24;20048;-95
2024/01/26 05:40:10;;;;;;;16.10;9.50;;;;;;;;;;4798171;24;20032;-94
2024/01/26 05:42:44;;;;;;;15.60;11.68;;;;;;;;;;4817569;24;20048;-94
2024/01/26 05:45:17;;;;;;;16.13;10.43;;;;;;;;;;4840184;24;20077;-94
2024/01/26 05:48:34;;;;;;;17.40;12.45;;;10.50;99.90;;;;;;4960833;24;20141;31
2024/01/26 05:51:01;;;;;;;18.05;11.38;;;;;;;;;;4782340;24;20553;-96
2024/01/26 05:54:12;;;;;;;14.30;9.98;;;;;;;;;;4861433;24;20078;-96
2024/01/26 05:59:59;;;;;;;14.95;11.43;;;;;;;;;;4978412;24;20065;-95
2024/01/26 06:05:48;;;;;;;17.37;10.77;;;;;;;;;;4605794;23;7454179;-94
2024/01/26 06:08:15;;;;;;;13.40;10.02;;;;;;;;;;4898832;24;20022;-94
2024/01/26 06:17:27;;;;;;;13.30;10.13;;;;;;;;;;4850732;24;20056;-94
2024/01/26 06:20:11;;;;;;;14.85;9.27;;;;;;;;;;4847719;24;20048;-96
2024/01/26 06:22:47;;;;;;;13.95;9.75;;;;;;;;;;4827169;24;20651;-95
2024/01/26 06:25:15;;;;;;;15.35;10.18;;;;;;;;;;4814500;29;20429;-94
2024/01/26 06:27:41;;;;;;;16.25;11.55;;;;;;;;;;4800636;29;20063;-94
2024/01/26 06:30:20;;;;;;;15.13;11.27;;;;;;;;;;4786562;29;20055;-94
2024/01/26 06:32:49;;;;;;;17.13;10.32;;;;;;;;;;4785560;29;20051;-95
2024/01/26 06:35:15;;;;;;;18.02;11.95;;;;;;;;;;4783425;29;20055;-95
2024/01/26 06:37:41;;;;;;;17.52;11.15;;;;;;;;;;4785829;29;20043;-94
2024/01/26 06:40:11;;;;;;;14.68;10.02;;;;;;;;;;4758716;30;20062;-95
2024/01/26 06:42:40;;;;;;;14.05;10.38;;;;;;;;;;4772836;29;20159;-95
2024/01/26 06:45:10;;;;;;;12.55;9.55;;;;;;;;;;4762852;30;20063;-95
2024/01/26 06:47:36;;;;;;;13.68;9.50;;;;;;;;;;4775084;29;20138;-94
2024/01/26 06:50:03;;;;;;;11.68;8.65;;;;;;;;;;4774248;30;20056;-92
2024/01/26 06:52:29;;;;;;;12.43;8.93;;;;;;;;;;4761608;29;20078;-94
2024/01/26 06:54:55;;;;;;;15.90;8.98;;;;;;;;;;4775541;29;20079;-96
2024/01/26 06:57:21;;;;;;;11.82;8.30;;;;;;;;;;4777525;30;20055;-96
2024/01/26 06:59:58;;;;;;;11.75;8.80;;;;;;;;;;4796523;29;20051;-95
2024/01/26 07:02:24;;;;;;;10.65;8.48;;;;;;;;;;4782876;30;20058;-94
2024/01/26 07:04:51;;;;;;;13.32;8.70;;;;;;;;;;4780058;30;20043;-95
2024/01/26 07:07:17;;;;;;;12.02;8.00;;;;;;;;;;4782383;29;20099;-95
2024/01/26 07:09:43;;;;;;;11.27;8.35;;;;;;;;;;4751494;30;20059;-95
2024/01/26 07:12:09;;;;;;;11.48;8.25;;;;;;;;;;4764276;30;20104;-96
2024/01/26 07:14:35;;;;;;;10.07;7.85;;;;;;;;;;4764118;30;20062;-96
2024/01/26 07:17:01;;;;;;;10.85;7.43;;;;;;;;;;4765137;30;20048;-93
2024/01/26 07:19:41;;;;;;;9.55;7.43;;;;;;;;;;4766415;30;20134;-95
2024/01/26 07:22:14;;;;;;;11.05;6.03;;;;;;;;;;4753485;30;20064;-95
2024/01/26 07:24:40;;;;;;;13.15;6.68;;;;;;;;;;4766796;30;20048;-94
2024/01/26 07:27:10;;;;;;;9.27;7.43;;;;;;;;;;4787847;30;20112;-95
2024/01/26 07:29:39;;;;;;;11.95;7.43;;;;;;;;;;4771312;30;20078;-94
2024/01/26 07:32:05;;;;;;;8.80;6.68;;;;;;;;;;4763684;30;20055;-94
2024/01/26 07:34:31;;;;;;;10.57;7.43;;;;;;;;;;4776542;30;20058;-93
2024/01/26 07:36:57;;;;;;;7.00;5.60;;;;;;;;;;4782425;30;20071;-94
2024/01/26 07:39:23;;;;;;;5.93;4.75;;;;;;;;;;4781079;30;20082;-93
2024/01/26 07:41:49;;;;;;;5.70;4.43;;;;;;;;;;4777269;29;20074;-94
2024/01/26 07:44:18;;;;;;;5.55;4.72;;;;;;;;;;4783036;30;20051;-95
2024/01/26 07:46:45;;;;;;;6.30;4.97;;;;;;;;;;4767486;30;20051;-95
2024/01/26 07:49:11;;;;;;;7.13;4.97;;;;;;;;;;4784527;30;20051;-94
2024/01/26 07:51:40;;;;;;;6.95;4.95;;;;;;;;;;4784467;29;20050;-95
2024/01/26 07:54:06;;;;;;;6.60;4.60;;;;;;;;;;4786446;29;20051;-95
2024/01/26 07:56:32;;;;;;;6.28;4.88;;;;;;;;;;4787373;30;20102;-96
2024/01/26 07:58:58;;;;;;;7.30;4.18;;;;;;;;;;4788846;30;20058;-96
2024/01/26 08:01:24;;;;;;;8.48;5.03;;;;;;;;;;4786882;30;20066;-94
2024/01/26 08:03:53;;;;;;;5.13;4.60;;;;;;;;;;4781380;30;20082;-96
2024/01/26 08:06:19;;;;;;;5.60;4.50;;;;;;;;;;4786790;30;20055;-95
2024/01/26 08:08:45;;;;;;;7.05;4.82;;;;;;;;;;4784271;30;20094;-95
2024/01/26 08:11:18;;;;;;;4.45;4.00;;;;;;;;;;4782930;30;20489;-95
2024/01/26 08:13:44;;;;;;;5.18;4.63;;;;;;;;;;4783491;30;20055;-95
2024/01/26 08:16:17;;;;;;;5.85;4.88;;;;;;;;;;4783092;30;20043;-94
2024/01/26 08:18:43;;;;;;;6.22;5.07;;;;;;;;;;4783288;30;20051;-95
2024/01/26 08:21:10;;;;;;;6.00;4.25;;;;;;;;;;4783201;30;20054;-96
2024/01/26 08:23:36;;;;;;;4.30;3.63;;;;;;;;;;4782112;30;20513;-95
2024/01/26 08:26:05;;;;;;;5.18;3.90;;;;;;;;;;4769478;30;20513;-96
2024/01/26 08:28:31;;;;;;;7.22;4.38;;;;;;;;;;4751515;30;20081;-94
2024/01/26 08:30:57;;;;;;;5.65;4.15;;;;;;;;;;4772428;30;20054;-94
2024/01/26 08:33:26;;;;;;;5.35;4.53;;;;;;;;;;4783184;30;20417;-96
2024/01/26 08:35:52;;;;;;;8.32;4.75;;;;;;;;;;4782812;30;20055;-93
2024/01/26 08:38:18;;;;;;;10.13;5.15;;;;;;;;;;4782117;30;20072;-94
2024/01/26 08:40:44;;;;;;;5.95;4.63;;;;;;;;;;4780589;30;20054;-94
2024/01/26 08:43:10;;;;;;;12.43;5.22;;;;;;;;;;4780019;30;20055;-95
2024/01/26 08:45:42;;;;;;;5.90;4.47;;;;;;;;;;4768766;30;20158;-93
2024/01/26 08:48:08;;;;;;;12.98;5.38;;;;;;;;;;4773056;29;20055;-94
2024/01/26 08:50:36;;;;;;;9.20;4.70;;;;;;;;;;4780051;30;20101;-93
2024/01/26 08:53:03;;;;;;;12.30;5.13;;;;;;;;;;4777082;30;20496;-94
2024/01/26 08:55:29;;;;;;;12.73;5.63;;;;;;;;;;4776308;29;20051;-94
2024/01/26 08:57:55;;;;;;;14.13;5.22;;;;;;;;;;4774395;30;20251;-95
2024/01/26 09:00:21;;;;;;;12.43;4.28;;;;;;;;;;4762179;30;20094;-94
2024/01/26 09:02:48;;;;;;;10.38;4.63;;;;;;;;;;4759620;30;20074;-93
2024/01/26 09:05:20;;;;;;;6.55;2.90;;;;;;;;;;4761688;30;20127;-94
2024/01/26 09:07:51;;;;;;;4.55;2.22;;;;;;;;;;4777563;30;20104;-91
2024/01/26 09:10:19;;;;;;;3.95;1.75;;;;;;;;;;4791980;30;21338;-93
2024/01/26 09:12:46;;;;;;;4.10;1.42;;;;;;;;;;4776809;30;20390;-93
2024/01/26 09:15:28;;;;;;;7.47;2.13;;;;;;;;;;4791729;29;20051;-92
2024/01/26 09:17:55;;;;;;;2.80;1.17;;;;;;;;;;4772799;30;20073;-92
2024/01/26 09:20:22;;;;;;;4.30;1.70;;;;;;;;;;4775180;30;20054;-93
2024/01/26 09:22:57;;;;;;;3.97;1.45;;;;;;;;;;4761267;29;20120;-92
2024/01/26 09:25:23;;;;;;;1.65;1.05;;;;;;;;;;4772214;30;20059;-94
2024/01/26 09:27:51;;;;;;;4.32;1.30;;;;;;;;;;4789724;30;20053;-92
2024/01/26 09:30:17;;;;;;;6.72;1.67;;;;;;;;;;4773925;30;20055;-93
2024/01/26 09:32:43;;;;;;;3.95;1.60;;;;;;;;;;4776241;30;20051;-94
2024/01/26 09:35:10;;;;;;;3.85;2.25;;;;;;;;;;4775945;29;20047;-93
2024/01/26 09:37:36;;;;;;;9.82;2.28;;;;;;;;;;4777233;29;20043;-93
2024/01/26 09:40:02;;;;;;;14.07;2.30;;;;;;;;;;4776935;29;20055;-94
2024/01/26 09:42:29;;;;;;;13.48;2.70;;;;;;;;;;4781136;30;20054;-94
2024/01/26 09:44:55;;;;;;;16.67;2.88;;;;;;;;;;4779896;29;20043;-94
2024/01/26 09:47:22;;;;;;;7.82;2.47;;;;;;;;;;4766432;29;20047;-93
2024/01/26 09:49:55;;;;;;;8.00;3.08;;;;;;;;;;4776102;29;20058;-91
2024/01/26 09:52:21;;;;;;;11.75;2.97;;;;;;;;;;4776059;29;20134;-94
2024/01/26 09:54:48;;;;;;;12.32;3.65;;;;;;;;;;4774772;30;20055;-94
2024/01/26 09:57:15;;;;;;;6.82;2.30;;;;;;;;;;4774530;30;20054;-92
2024/01/26 09:59:41;;;;;;;9.93;2.75;;;;;;;;;;4774139;30;20039;-93
2024/01/26 10:02:07;;;;;;;15.48;3.10;;;;;;;;;;4773226;30;20055;-95
2024/01/26 10:04:35;;;;;;;12.88;3.67;;;;;;;;;;4782990;24;20052;-94
2024/01/26 10:07:03;;;;;;;7.70;2.63;;;;;;;;;;4771902;30;20497;-94
2024/01/26 10:09:35;;;;;;;10.90;2.75;;;;;;;;;;4769062;30;20059;-94
2024/01/26 10:15:13;;;;;;;9.95;2.47;;;;;;;;;;4777293;29;20060;-95
2024/01/26 10:17:45;;;;;;;7.47;2.65;;;;;;;;;;4775611;30;20044;-94
2024/01/26 10:20:18;;;;;;;8.68;2.42;;;;;;;;;;4774284;30;20057;-94
2024/01/26 10:22:48;;;;;;;13.77;2.73;;;;;;;;;;4784305;29;20044;-91
2024/01/26 10:25:14;;;;;;;13.90;3.72;;;;;;;;;;4782828;30;20069;-94
2024/01/26 10:27:41;;;;;;;16.13;3.33;;;;;;;;;;4755780;30;20062;-95
2024/01/26 10:30:11;;;;;;;15.68;3.53;;;;;;;;;;4761508;24;20120;-93
2024/01/26 10:32:38;;;;;;;20.08;3.58;;;;;;;;;;4785031;29;20469;-93
2024/01/26 10:35:08;;;;;;;10.65;3.28;;;;;;;;;;4786019;29;20082;-93
2024/01/26 10:37:35;;;;;;;7.55;3.10;;;;;;;;;;4799033;29;20147;-94
2024/01/26 10:40:04;;;;;;;12.00;3.47;;;;;;;;;;4791641;29;20428;-94
2024/01/26 10:42:32;;;;;;;12.80;3.22;;;;;;;;;;4800964;29;20043;-94
2024/01/26 10:45:00;;;;;;;13.75;3.65;;;;;;;;;;4803704;29;20138;-94
2024/01/26 10:47:27;;;;;;;14.95;2.80;;;;;;;;;;4808179;29;20069;-94
2024/01/26 10:49:58;;;;;;;13.77;3.42;;;;;;;;;;4806740;29;20059;-93
2024/01/26 10:52:24;;;;;;;13.93;4.15;;;;;;;;;;4809323;29;20050;-93
2024/01/26 10:54:51;;;;;;;13.48;2.85;;;;;;;;;;4778104;29;20085;-93
2024/01/26 10:57:19;;;;;;;9.57;3.45;;;;;;;;;;4808414;29;20043;-93
2024/01/26 10:59:45;;;;;;;15.82;3.95;;;;;;;;;;4800162;29;20047;-93
2024/01/26 11:02:16;;;;;;;16.15;3.35;;;;;;;;;;4766911;29;20134;-92
2024/01/26 11:04:49;;;;;;;25.88;5.10;;;;;;;;;;4781566;29;20058;-93
2024/01/26 11:07:26;;;;;;;9.02;3.08;;;;;;;;;;4803450;29;20054;-92
2024/01/26 11:09:53;;;;;;;16.08;3.13;;;;;;;;;;4802181;29;20070;-92
2024/01/26 11:12:25;;;;;;;12.52;3.75;;;;;;;;;;4804543;29;20065;-92
2024/01/26 11:15:08;;;;;;;24.08;4.03;;;;;;;;;;4803371;29;20050;-93
2024/01/26 11:17:44;;;;;;;8.67;2.77;;;;;;;;;;4791082;29;20508;-93
2024/01/26 11:20:34;;;;;;;20.33;3.35;;;;;;;;;;4800560;29;20297;-93
2024/01/26 11:23:07;;;;;;;10.73;2.60;;;;;;;;;;4801672;29;20096;-93
2024/01/26 11:25:34;;;;;;;13.38;2.40;;;;;;;;;;4799669;29;20051;-92
2024/01/26 11:28:01;;;;;;;7.03;2.97;;;;;;;;;;4775101;29;20932;-93
2024/01/26 11:30:28;;;;;;;20.83;4.47;;;;;;;;;;4806988;29;20094;-92
2024/01/26 11:32:54;;;;;;;14.43;3.47;;;;;;;;;;4809287;29;20059;-94
2024/01/26 11:35:33;;;;;;;23.52;3.72;;;;;;;;;;4865968;24;20066;-92
2024/01/26 11:38:22;;;;;;;11.32;3.20;;;8.60;99.90;;;;;;4724363;30;20052;-92
2024/01/26 11:40:57;;;;;;;11.48;2.92;;;;;;;;;;4741277;30;20451;-93
2024/01/26 11:43:47;;;;;;;13.95;2.88;;;;;;;;;;4747470;30;20049;-94
2024/01/26 11:46:16;;;;;;;17.98;3.88;;;;;;;;;;4746800;30;20044;-93
2024/01/26 11:48:50;;;;;;;14.43;2.75;;;;;;;;;;4746779;30;20091;-93
2024/01/26 11:51:19;;;;;;;13.07;3.05;;;;;;;;;;4725733;30;20049;-93
2024/01/26 14:57:48;;;;;;;7.18;2.35;;;;;;;;;;4769180;29;20121;-96
2024/01/26 15:00:22;;;;;;;17.48;4.32;;;;;;;;;;4732213;30;20051;-96
2024/01/26 15:02:48;;;;;;;23.40;3.78;;;;;;;;;;4733067;30;20062;-94
2024/01/26 15:05:32;;;;;;;17.42;2.75;;;;;;;;;;4757518;30;20044;-96
2024/01/26 15:07:58;;;;;;;4.50;1.95;;;;;;;;;;4736051;30;20413;-96
2024/01/26 15:10:24;;;;;;;16.17;2.97;;;;;;;;;;4733538;30;20052;-96
2024/01/26 15:12:50;;;;;;;17.65;3.40;;;;;;;;;;4726805;30;20109;-96
2024/01/26 15:15:18;;;;;;;10.55;3.15;;;;;;;;;;4758812;30;20044;-96
2024/01/26 15:17:46;;;;;;;11.65;3.17;;;;;;;;;;4735748;30;20044;-95
2024/01/26 15:20:14;;;;;;;12.45;3.55;;;;;;;;;;4757690;30;20051;-96
2024/01/26 15:22:43;;;;;;;19.70;3.22;;;;;;;;;;4733722;30;20052;-95
2024/01/26 15:25:09;;;;;;;17.88;4.32;;;;;;;;;;4737657;30;20100;-95
2024/01/26 15:27:37;;;;;;;19.60;3.20;;;;;;;;;;4735318;30;20036;-96
2024/01/26 15:30:09;;;;;;;18.48;2.72;;;;;;;;;;4737034;30;20048;-95
2024/01/26 15:32:38;;;;;;;12.05;3.75;;;;;;;;;;4734505;30;20580;-94
2024/01/26 15:35:05;;;;;;;17.85;3.78;;;;;;;;;;4761967;30;20148;-95
2024/01/26 15:37:31;;;;;;;22.40;3.15;;;;;;;;;;4745536;30;20043;-94
2024/01/26 15:39:57;;;;;;;16.10;2.92;;;;;;;;;;4744131;30;20108;-95
2024/01/26 15:42:26;;;;;;;18.63;4.20;;;;;;;;;;4745387;30;20048;-96
2024/01/26 15:44:56;;;;;;;35.83;4.18;;;;;;;;;;4744888;30;20533;-96
2024/01/26 15:47:32;;;;;;;30.40;4.13;;;;;;;;;;4748297;30;20119;-95
2024/01/26 15:50:13;;;;;;;12.75;3.88;;;;;;;;;;4747090;30;20067;-95
2024/01/26 15:52:39;;;;;;;22.08;4.68;;;;;;;;;;4743627;30;20056;-92
2024/01/26 15:55:06;;;;;;;19.30;4.18;;;;;;;;;;4738567;30;20190;-92
2024/01/26 15:57:33;;;;;;;24.45;5.07;;;;;;;;;;4747715;30;20052;-95
2024/01/26 15:59:59;;;;;;;19.10;4.13;;;;;;;;;;4743367;30;20120;-95
2024/01/26 16:02:25;;;;;;;16.42;4.45;;;;;;;;;;4745340;30;20421;-94
2024/01/26 16:04:51;;;;;;;12.30;3.55;;;;;;;;;;4740622;30;20090;-95
2024/01/26 16:07:20;;;;;;;25.63;4.68;;;;;;;;;;4745232;30;20486;-95
2024/01/26 16:09:46;;;;;;;14.88;3.70;;;;;;;;;;4729922;30;20726;-94
2024/01/26 16:12:12;;;;;;;10.60;3.83;;;;;;;;;;4741425;30;20164;-95
2024/01/26 16:14:40;;;;;;;19.33;5.10;;;;;;;;;;4742183;30;20055;-93
2024/01/26 16:17:06;;;;;;;17.38;4.80;;;;;;;;;;4746296;30;20063;-94
2024/01/26 16:19:33;;;;;;;13.45;3.67;;;;;;;;;;4741488;30;20051;-94
2024/01/26 16:21:59;;;;;;;15.43;3.78;;;;;;;;;;4732259;30;20059;-94
2024/01/26 16:24:26;;;;;;;28.67;5.25;;;;;;;;;;4745480;30;20081;-95
2024/01/26 16:26:52;;;;;;;18.35;4.25;;;;;;;;;;4744849;30;20043;-94
2024/01/26 16:29:21;;;;;;;19.42;4.72;;;;;;;;;;4745775;30;20052;-95
2024/01/26 16:31:47;;;;;;;18.77;4.55;;;;;;;;;;4756268;30;20127;-94
2024/01/26 16:34:13;;;;;;;14.90;3.90;;;;;;;;;;4743988;30;20059;-94
2024/01/26 16:36:41;;;;;;;21.60;7.07;;;;;;;;;;4748576;30;20247;-93
2024/01/26 16:39:07;;;;;;;20.75;4.43;;;;;;;;;;4741652;30;20047;-94
2024/01/26 16:41:34;;;;;;;29.90;4.50;;;;;;;;;;4754386;30;20044;-93
2024/01/26 16:44:00;;;;;;;23.17;4.35;;;;;;;;;;4743942;30;20136;-93
2024/01/26 16:46:26;;;;;;;13.45;4.55;;;;;;;;;;4744679;30;20051;-94
2024/01/26 16:49:00;;;;;;;12.55;2.83;;;;;;;;;;4759376;30;20433;-93
2024/01/26 16:51:28;;;;;;;20.52;4.70;;;;;;;;;;4762178;30;20047;-93
2024/01/26 16:53:54;;;;;;;21.50;4.97;;;;;;;;;;4742263;30;22512;-92
2024/01/26 16:56:21;;;;;;;22.48;4.35;;;;;;;;;;4746528;30;20541;-93
2024/01/26 16:58:47;;;;;;;23.55;6.43;;;;;;;;;;4736650;30;20522;-93
2024/01/26 17:01:16;;;;;;;24.48;5.88;;;;;;;;;;4742338;30;20051;-93
2024/01/26 17:03:42;;;;;;;22.05;4.13;;;;;;;;;;4755706;30;20055;-93
2024/01/26 17:06:09;;;;;;;19.33;4.82;;;;;;;;;;4744129;30;20055;-93
2024/01/26 17:08:35;;;;;;;24.02;3.60;;;;;;;;;;4727087;30;20086;-93
2024/01/26 17:11:02;;;;;;;22.88;4.30;;;;;;;;;;4729707;30;20050;-94
2024/01/26 17:13:28;;;;;;;30.05;4.80;;;;;;;;;;4757912;29;20117;-93
2024/01/26 17:15:55;;;;;;;16.95;5.00;;;;;;;;;;4742038;30;20461;-92
2024/01/26 17:18:23;;;;;;;32.38;6.28;;;;;;;;;;4744051;30;20056;-93
2024/01/26 17:20:49;;;;;;;17.63;5.22;;;;;;;;;;4743364;30;20059;-94
2024/01/26 17:23:16;;;;;;;11.60;4.40;;;;;;;;;;4753691;30;20051;-94
2024/01/26 17:25:42;;;;;;;18.52;4.75;;;;;;;;;;4747809;30;20482;-93
2024/01/26 17:28:08;;;;;;;13.02;4.00;;;;;;;;;;4736553;30;20109;-94
2024/01/26 17:30:34;;;;;;;25.38;4.63;;;;;;;;;;4754523;30;20043;-94
2024/01/26 17:33:04;;;;;;;14.35;3.75;;;;;;;;;;4742337;30;20082;-94
2024/01/26 17:35:30;;;;;;;17.83;5.75;;;;;;;;;;4753361;30;20147;-93
2024/01/26 17:37:56;;;;;;;25.35;5.20;;;;;;;;;;4746624;30;20044;-95
2024/01/26 17:40:22;;;;;;;21.60;4.57;;;;;;;;;;4754924;30;20055;-94
2024/01/26 17:42:48;;;;;;;11.90;4.05;;;;;;;;;;4739444;30;20043;-93
2024/01/26 17:45:14;;;;;;;18.58;4.03;;;;;;;;;;4739764;30;20533;-94
2024/01/26 17:47:42;;;;;;;16.30;3.90;;;;;;;;;;4747916;30;20043;-95
2024/01/26 17:50:08;;;;;;;11.48;3.33;;;;;;;;;;4739733;30;20055;-93
2024/01/26 17:52:35;;;;;;;18.65;4.38;;;;;;;;;;4754283;30;20044;-94
2024/01/26 17:55:02;;;;;;;17.42;4.13;;;;;;;;;;4753384;30;20454;-94
2024/01/26 17:57:28;;;;;;;18.83;4.03;;;;;;;;;;4754163;30;20059;-95
2024/01/26 17:59:54;;;;;;;26.80;5.97;;;;;;;;;;4752712;30;20051;-94
2024/01/26 18:02:20;;;;;;;24.02;4.80;;;;;;;;;;4746598;30;20040;-94
2024/01/26 18:04:46;;;;;;;11.90;4.03;;;;;;;;;;4739727;30;20085;-95
2024/01/26 18:07:12;;;;;;;13.20;3.63;;;;;;;;;;4739431;30;20044;-95
2024/01/26 18:09:39;;;;;;;21.90;5.30;;;;;;;;;;4740406;30;20051;-94
2024/01/26 18:12:05;;;;;;;34.97;5.25;;;;;;;;;;4744517;30;20048;-94
2024/01/26 18:14:31;;;;;;;17.55;3.95;;;;;;;;;;4734154;30;20142;-94
2024/01/26 18:16:57;;;;;;;25.70;5.30;;;;;;;;;;4737840;30;20058;-95
2024/01/26 18:19:23;;;;;;;20.55;5.03;;;;;;;;;;4742681;30;20062;-95
2024/01/26 18:21:49;;;;;;;11.98;3.75;;;;;;;;;;4750162;30;20129;-95
2024/01/26 18:24:16;;;;;;;25.13;4.28;;;;;;;;;;4742710;30;20047;-95
2024/01/26 18:26:42;;;;;;;19.88;4.22;;;;;;;;;;4744230;30;20387;-95
2024/01/26 18:29:10;;;;;;;28.95;5.53;;;;;;;;;;4738102;30;20043;-95
2024/01/26 18:31:37;;;;;;;28.25;5.45;;;;;;;;;;4738779;30;20044;-94
2024/01/26 18:34:04;;;;;;;17.58;4.38;;;;;;;;;;4738793;30;20058;-93
2024/01/26 18:36:30;;;;;;;22.20;4.35;;;;;;;;;;4750601;30;20050;-94
2024/01/26 18:39:02;;;;;;;20.35;5.00;;;;;;;;;;4747699;30;20079;-94
2024/01/26 18:41:30;;;;;;;19.35;4.65;;;;;;;;;;4757649;30;20065;-94
2024/01/26 18:43:56;;;;;;;15.52;4.63;;;;;;;;;;4738681;30;20399;-95
2024/01/26 18:46:23;;;;;;;17.10;3.85;;;;;;;;;;4757563;30;20164;-95
2024/01/26 18:48:49;;;;;;;24.88;4.00;;;;;;;;;;4753565;30;20434;-94
2024/01/26 18:51:16;;;;;;;19.73;5.07;;;;;;;;;;4742912;30;20055;-95
2024/01/26 18:53:43;;;;;;;20.15;3.65;;;;;;;;;;4756153;30;20056;-95
2024/01/26 18:56:09;;;;;;;21.48;4.10;;;;;;;;;;4756670;30;20113;-95
2024/01/26 18:58:35;;;;;;;22.85;4.63;;;;;;;;;;4755425;30;20047;-94
2024/01/26 21:23:34;;;;;;;22.25;6.00;;;;;;;;;;5816818;24;20343;-95
2024/01/26 21:26:05;;;;;;;18.20;4.43;;;;;;;;;;4723187;30;20095;-95
2024/01/26 21:28:34;;;;;;;20.00;4.20;;;;;;;;;;4736551;30;20509;-95
2024/01/26 21:31:05;;;;;;;17.38;6.22;;;;;;;;;;4749056;30;20044;-96
2024/01/26 21:33:31;;;;;;;13.90;4.85;;;;;;;;;;4723505;30;20160;-95
2024/01/26 21:38:46;;;;;;;22.55;5.00;;;;;;;;;;4783747;24;20501;-96